sensor_id;sensor_type;location;lat;lon;timestamp;pressure;altitude;pressure_sealevel;temperature;humidity
31532;BME280;23787;52.180;5.288;2022-08-19T00:03:58;101190.0;;;18.5;100.0
31532;BME280;23787;52.180;5.288;2022-08-19T00:18:58;101190.0;;;18.6;100.0
31532;BME280;23787;52.180;5.288;2022-08-19T00:23:58;101200.0;;;18.4;100.0
31532;BME280;23787;52.180;5.288;2022-08-19T00:28:58;101190.0;;;18.2;100.0
31532;BME280;23787;52.180;5.288;2022-08-19T00:33:58;101190.0;;;18.3;100.0
31532;BME280;23787;52.180;5.288;2022-08-19T00:48:58;101180.0;;;18.1;100.0
31532;BME280;23787;52.180;5.288;2022-08-19T00:53:58;101190.0;;;17.9;100.0
31532;BME280;23787;52.180;5.288;2022-08-19T00:58:58;101190.0;;;18.1;100.0
31532;BME280;23787;52.180;5.288;2022-08-19T01:08:58;101190.0;;;17.9;100.0
31532;BME280;23787;52.180;5.288;2022-08-19T01:18:58;101180.0;;;18.0;100.0
31532;BME280;23787;52.180;5.288;2022-08-19T01:28:58;101180.0;;;18.1;100.0
31532;BME280;23787;52.180;5.288;2022-08-19T01:33:58;101190.0;;;17.7;100.0
31532;BME280;23787;52.180;5.288;2022-08-19T01:48:58;101210.0;;;17.8;100.0
31532;BME280;23787;52.180;5.288;2022-08-19T01:53:58;101190.0;;;17.6;100.0
31532;BME280;23787;52.180;5.288;2022-08-19T01:58:59;101180.0;;;17.8;100.0
31532;BME280;23787;52.180;5.288;2022-08-19T02:03:58;101180.0;;;17.5;100.0
31532;BME280;23787;52.180;5.288;2022-08-19T02:13:58;101200.0;;;17.4;100.0
31532;BME280;23787;52.180;5.288;2022-08-19T02:38:58;101210.0;;;17.1;100.0
31532;BME280;23787;52.180;5.288;2022-08-19T02:43:59;101220.0;;;17.0;100.0
31532;BME280;23787;52.180;5.288;2022-08-19T02:48:59;101220.0;;;17.2;100.0
31532;BME280;23787;52.180;5.288;2022-08-19T03:03:59;101210.0;;;16.8;100.0
31532;BME280;23787;52.180;5.288;2022-08-19T03:08:58;101210.0;;;17.1;100.0
31532;BME280;23787;52.180;5.288;2022-08-19T03:13:58;101200.0;;;17.0;100.0
31532;BME280;23787;52.180;5.288;2022-08-19T03:23:59;101200.0;;;16.9;100.0
31532;BME280;23787;52.180;5.288;2022-08-19T03:29:01;101190.0;;;17.0;100.0
31532;BME280;23787;52.180;5.288;2022-08-19T03:33:58;101200.0;;;16.9;100.0
31532;BME280;23787;52.180;5.288;2022-08-19T03:48:59;101190.0;;;16.5;100.0
31532;BME280;23787;52.180;5.288;2022-08-19T03:53:59;101200.0;;;16.6;100.0
31532;BME280;23787;52.180;5.288;2022-08-19T03:58:58;101180.0;;;16.7;100.0
31532;BME280;23787;52.180;5.288;2022-08-19T04:08:59;101190.0;;;16.6;100.0
31532;BME280;23787;52.180;5.288;2022-08-19T04:13:58;101190.0;;;16.5;100.0
31532;BME280;23787;52.180;5.288;2022-08-19T04:18:59;101180.0;;;16.7;100.0
31532;BME280;23787;52.180;5.288;2022-08-19T04:23:58;101180.0;;;16.6;100.0
31532;BME280;23787;52.180;5.288;2022-08-19T04:38:59;101180.0;;;16.5;100.0
31532;BME280;23787;52.180;5.288;2022-08-19T04:48:58;101170.0;;;16.4;100.0
31532;BME280;23787;52.180;5.288;2022-08-19T04:53:58;101180.0;;;16.6;100.0
31532;BME280;23787;52.180;5.288;2022-08-19T05:03:58;101200.0;;;16.5;100.0
31532;BME280;23787;52.180;5.288;2022-08-19T05:08:58;101210.0;;;16.6;100.0
31532;BME280;23787;52.180;5.288;2022-08-19T05:13:58;101220.0;;;16.7;100.0
31532;BME280;23787;52.180;5.288;2022-08-19T05:18:58;101220.0;;;16.9;100.0
31532;BME280;23787;52.180;5.288;2022-08-19T05:23:58;101220.0;;;16.8;100.0
31532;BME280;23787;52.180;5.288;2022-08-19T05:28:58;101210.0;;;17.1;100.0
31532;BME280;23787;52.180;5.288;2022-08-19T05:33:58;101220.0;;;17.2;100.0
31532;BME280;23787;52.180;5.288;2022-08-19T05:38:58;101220.0;;;17.5;100.0
31532;BME280;23787;52.180;5.288;2022-08-19T05:44:00;101220.0;;;17.6;100.0
31532;BME280;23787;52.180;5.288;2022-08-19T05:48:58;101210.0;;;18.1;100.0
31532;BME280;23787;52.180;5.288;2022-08-19T05:53:58;101210.0;;;19.0;100.0
31532;BME280;23787;52.180;5.288;2022-08-19T05:58:58;101210.0;;;18.8;100.0
31532;BME280;23787;52.180;5.288;2022-08-19T06:03:58;101200.0;;;19.8;100.0
31532;BME280;23787;52.180;5.288;2022-08-19T06:08:58;101200.0;;;19.9;100.0
31532;BME280;23787;52.180;5.288;2022-08-19T06:14:00;101200.0;;;21.0;100.0
31532;BME280;23787;52.180;5.288;2022-08-19T06:18:59;101200.0;;;20.4;100.0
31532;BME280;23787;52.180;5.288;2022-08-19T06:23:58;101210.0;;;21.7;100.0
31532;BME280;23787;52.180;5.288;2022-08-19T06:28:58;101200.0;;;21.1;100.0
31532;BME280;23787;52.180;5.288;2022-08-19T06:33:58;101200.0;;;21.0;100.0
31532;BME280;23787;52.180;5.288;2022-08-19T06:38:58;101210.0;;;20.6;100.0
31532;BME280;23787;52.180;5.288;2022-08-19T06:43:58;101220.0;;;20.1;100.0
31532;BME280;23787;52.180;5.288;2022-08-19T06:48:58;101220.0;;;20.0;100.0
31532;BME280;23787;52.180;5.288;2022-08-19T06:53:58;101220.0;;;20.4;100.0
31532;BME280;23787;52.180;5.288;2022-08-19T07:04:01;101230.0;;;20.2;100.0
31532;BME280;23787;52.180;5.288;2022-08-19T07:13:58;101220.0;;;21.0;100.0
31532;BME280;23787;52.180;5.288;2022-08-19T07:18:58;101230.0;;;21.1;100.0
31532;BME280;23787;52.180;5.288;2022-08-19T07:23:58;101230.0;;;21.2;100.0
31532;BME280;23787;52.180;5.288;2022-08-19T07:28:58;101230.0;;;21.1;100.0
31532;BME280;23787;52.180;5.288;2022-08-19T07:33:58;101230.0;;;22.4;100.0
31532;BME280;23787;52.180;5.288;2022-08-19T07:38:59;101220.0;;;22.5;100.0
31532;BME280;23787;52.180;5.288;2022-08-19T07:43:58;101220.0;;;22.4;100.0
31532;BME280;23787;52.180;5.288;2022-08-19T07:48:58;101220.0;;;22.0;100.0
31532;BME280;23787;52.180;5.288;2022-08-19T07:58:58;101250.0;;;21.5;100.0
31532;BME280;23787;52.180;5.288;2022-08-19T08:03:58;101250.0;;;22.1;100.0
31532;BME280;23787;52.180;5.288;2022-08-19T08:08:58;101240.0;;;22.5;100.0
31532;BME280;23787;52.180;5.288;2022-08-19T08:13:58;101240.0;;;23.1;100.0
31532;BME280;23787;52.180;5.288;2022-08-19T08:18:58;101260.0;;;23.4;100.0
31532;BME280;23787;52.180;5.288;2022-08-19T08:23:58;101260.0;;;24.3;100.0
31532;BME280;23787;52.180;5.288;2022-08-19T08:28:58;101250.0;;;25.2;100.0
31532;BME280;23787;52.180;5.288;2022-08-19T08:33:58;101250.0;;;24.2;100.0
31532;BME280;23787;52.180;5.288;2022-08-19T08:38:58;101250.0;;;24.7;100.0
31532;BME280;23787;52.180;5.288;2022-08-19T08:43:58;101250.0;;;27.8;100.0
31532;BME280;23787;52.180;5.288;2022-08-19T08:49:01;101240.0;;;28.2;100.0
31532;BME280;23787;52.180;5.288;2022-08-19T08:53:58;101240.0;;;31.1;100.0
31532;BME280;23787;52.180;5.288;2022-08-19T08:58:59;101250.0;;;28.1;100.0
31532;BME280;23787;52.180;5.288;2022-08-19T09:03:58;101250.0;;;29.6;100.0
31532;BME280;23787;52.180;5.288;2022-08-19T09:09:00;101240.0;;;28.2;100.0
31532;BME280;23787;52.180;5.288;2022-08-19T09:14:02;101250.0;;;27.8;100.0
31532;BME280;23787;52.180;5.288;2022-08-19T09:19:00;101260.0;;;27.5;100.0
31532;BME280;23787;52.180;5.288;2022-08-19T09:23:58;101260.0;;;27.0;100.0
31532;BME280;23787;52.180;5.288;2022-08-19T09:28:58;101250.0;;;26.2;100.0
31532;BME280;23787;52.180;5.288;2022-08-19T09:33:58;101250.0;;;27.5;100.0
31532;BME280;23787;52.180;5.288;2022-08-19T09:43:58;101260.0;;;28.3;100.0
31532;BME280;23787;52.180;5.288;2022-08-19T09:48:59;101260.0;;;27.5;100.0
31532;BME280;23787;52.180;5.288;2022-08-19T09:52:09;101260.0;;;27.5;100.0
31532;BME280;23787;52.180;5.288;2022-08-19T09:53:59;101260.0;;;28.1;100.0
31532;BME280;23787;52.180;5.288;2022-08-19T09:58:58;101260.0;;;28.6;100.0
31532;BME280;23787;52.180;5.288;2022-08-19T10:03:58;101260.0;;;28.9;100.0
31532;BME280;23787;52.180;5.288;2022-08-19T10:08:58;101260.0;;;27.3;100.0
31532;BME280;23787;52.180;5.288;2022-08-19T10:13:58;101250.0;;;29.6;100.0
31532;BME280;23787;52.180;5.288;2022-08-19T10:18:58;101250.0;;;30.6;100.0
31532;BME280;23787;52.180;5.288;2022-08-19T10:24:00;101250.0;;;30.5;100.0
31532;BME280;23787;52.180;5.288;2022-08-19T10:28:58;101250.0;;;30.6;100.0
31532;BME280;23787;52.180;5.288;2022-08-19T10:33:58;101260.0;;;31.9;100.0
31532;BME280;23787;52.180;5.288;2022-08-19T10:38:59;101250.0;;;32.2;100.0
31532;BME280;23787;52.180;5.288;2022-08-19T10:43:59;101250.0;;;33.6;97.6
31532;BME280;23787;52.180;5.288;2022-08-19T10:48:58;101240.0;;;33.0;100.0
31532;BME280;23787;52.180;5.288;2022-08-19T10:53:58;101240.0;;;31.8;100.0
31532;BME280;23787;52.180;5.288;2022-08-19T10:58:58;101230.0;;;30.4;100.0
31532;BME280;23787;52.180;5.288;2022-08-19T11:03:59;101230.0;;;30.9;100.0
31532;BME280;23787;52.180;5.288;2022-08-19T11:08:58;101230.0;;;31.5;100.0
31532;BME280;23787;52.180;5.288;2022-08-19T11:13:58;101230.0;;;31.9;100.0
31532;BME280;23787;52.180;5.288;2022-08-19T11:18:59;101220.0;;;33.0;100.0
31532;BME280;23787;52.180;5.288;2022-08-19T11:23:59;101220.0;;;30.8;100.0
31532;BME280;23787;52.180;5.288;2022-08-19T11:28:58;101210.0;;;32.1;100.0
31532;BME280;23787;52.180;5.288;2022-08-19T11:33:59;101210.0;;;30.8;100.0
31532;BME280;23787;52.180;5.288;2022-08-19T11:38:58;101210.0;;;31.0;100.0
31532;BME280;23787;52.180;5.288;2022-08-19T11:43:58;101210.0;;;30.0;100.0
31532;BME280;23787;52.180;5.288;2022-08-19T11:48:59;101210.0;;;30.3;100.0
31532;BME280;23787;52.180;5.288;2022-08-19T11:53:58;101210.0;;;29.9;100.0
31532;BME280;23787;52.180;5.288;2022-08-19T11:58:59;101220.0;;;28.3;100.0
31532;BME280;23787;52.180;5.288;2022-08-19T12:03:58;101220.0;;;28.5;100.0
31532;BME280;23787;52.180;5.288;2022-08-19T12:09:01;101220.0;;;27.1;100.0
31532;BME280;23787;52.180;5.288;2022-08-19T12:13:58;101260.0;;;26.5;100.0
31532;BME280;23787;52.180;5.288;2022-08-19T12:18:58;101260.0;;;26.6;100.0
31532;BME280;23787;52.180;5.288;2022-08-19T12:23:59;101260.0;;;26.8;100.0
31532;BME280;23787;52.180;5.288;2022-08-19T12:28:59;101250.0;;;26.6;100.0
31532;BME280;23787;52.180;5.288;2022-08-19T12:33:58;101240.0;;;26.3;100.0
31532;BME280;23787;52.180;5.288;2022-08-19T12:38:58;101230.0;;;26.6;100.0
31532;BME280;23787;52.180;5.288;2022-08-19T12:43:58;101240.0;;;27.1;100.0
31532;BME280;23787;52.180;5.288;2022-08-19T12:53:58;101230.0;;;27.3;100.0
31532;BME280;23787;52.180;5.288;2022-08-19T12:59:00;101230.0;;;26.9;100.0
31532;BME280;23787;52.180;5.288;2022-08-19T13:03:58;101230.0;;;26.8;100.0
31532;BME280;23787;52.180;5.288;2022-08-19T13:08:58;101230.0;;;26.9;100.0
31532;BME280;23787;52.180;5.288;2022-08-19T13:13:58;101220.0;;;26.5;100.0
31532;BME280;23787;52.180;5.288;2022-08-19T13:18:58;101220.0;;;26.4;100.0
31532;BME280;23787;52.180;5.288;2022-08-19T13:23:58;101220.0;;;26.2;100.0
31532;BME280;23787;52.180;5.288;2022-08-19T13:28:58;101230.0;;;26.6;100.0
31532;BME280;23787;52.180;5.288;2022-08-19T13:33:58;101230.0;;;26.2;100.0
31532;BME280;23787;52.180;5.288;2022-08-19T13:38:58;101220.0;;;26.4;100.0
31532;BME280;23787;52.180;5.288;2022-08-19T13:43:58;101220.0;;;26.0;100.0
31532;BME280;23787;52.180;5.288;2022-08-19T13:48:58;101230.0;;;25.9;100.0
31532;BME280;23787;52.180;5.288;2022-08-19T13:53:58;101220.0;;;26.4;100.0
31532;BME280;23787;52.180;5.288;2022-08-19T13:58:58;101210.0;;;26.8;100.0
31532;BME280;23787;52.180;5.288;2022-08-19T14:03:58;101220.0;;;27.5;100.0
31532;BME280;23787;52.180;5.288;2022-08-19T14:08:58;101210.0;;;27.4;100.0
31532;BME280;23787;52.180;5.288;2022-08-19T14:13:58;101210.0;;;27.1;100.0
31532;BME280;23787;52.180;5.288;2022-08-19T14:18:58;101200.0;;;27.7;100.0
31532;BME280;23787;52.180;5.288;2022-08-19T14:23:58;101200.0;;;27.8;100.0
31532;BME280;23787;52.180;5.288;2022-08-19T14:28:58;101210.0;;;27.5;100.0
31532;BME280;23787;52.180;5.288;2022-08-19T14:33:58;101200.0;;;27.3;100.0
31532;BME280;23787;52.180;5.288;2022-08-19T14:38:58;101200.0;;;27.5;100.0
31532;BME280;23787;52.180;5.288;2022-08-19T14:43:58;101200.0;;;26.4;100.0
31532;BME280;23787;52.180;5.288;2022-08-19T14:48:58;101220.0;;;25.5;100.0
31532;BME280;23787;52.180;5.288;2022-08-19T14:53:58;101210.0;;;25.8;100.0
31532;BME280;23787;52.180;5.288;2022-08-19T14:58:58;101210.0;;;25.1;100.0
31532;BME280;23787;52.180;5.288;2022-08-19T15:03:58;101200.0;;;26.9;100.0
31532;BME280;23787;52.180;5.288;2022-08-19T15:08:59;101200.0;;;26.6;100.0
31532;BME280;23787;52.180;5.288;2022-08-19T15:28:58;101190.0;;;27.0;100.0
31532;BME280;23787;52.180;5.288;2022-08-19T15:33:58;101190.0;;;26.4;100.0
31532;BME280;23787;52.180;5.288;2022-08-19T15:38:58;101200.0;;;26.5;100.0
31532;BME280;23787;52.180;5.288;2022-08-19T15:43:59;101200.0;;;25.8;100.0
31532;BME280;23787;52.180;5.288;2022-08-19T15:48:59;101200.0;;;25.6;100.0
31532;BME280;23787;52.180;5.288;2022-08-19T15:53:58;101210.0;;;26.0;100.0
31532;BME280;23787;52.180;5.288;2022-08-19T15:58:58;101210.0;;;25.7;100.0
31532;BME280;23787;52.180;5.288;2022-08-19T16:08:59;101220.0;;;25.2;100.0
31532;BME280;23787;52.180;5.288;2022-08-19T16:13:59;101220.0;;;25.8;100.0
31532;BME280;23787;52.180;5.288;2022-08-19T16:19:00;101230.0;;;25.1;100.0
31532;BME280;23787;52.180;5.288;2022-08-19T16:23:59;101240.0;;;25.2;100.0
31532;BME280;23787;52.180;5.288;2022-08-19T16:28:59;101250.0;;;24.8;100.0
31532;BME280;23787;52.180;5.288;2022-08-19T16:33:58;101240.0;;;25.6;100.0
31532;BME280;23787;52.180;5.288;2022-08-19T16:38:58;101240.0;;;25.5;100.0
31532;BME280;23787;52.180;5.288;2022-08-19T16:43:58;101220.0;;;25.8;100.0
31532;BME280;23787;52.180;5.288;2022-08-19T16:48:58;101230.0;;;25.5;100.0
31532;BME280;23787;52.180;5.288;2022-08-19T16:53:59;101230.0;;;25.0;100.0
31532;BME280;23787;52.180;5.288;2022-08-19T16:58:58;101240.0;;;25.3;100.0
31532;BME280;23787;52.180;5.288;2022-08-19T17:03:58;101240.0;;;25.1;100.0
31532;BME280;23787;52.180;5.288;2022-08-19T17:09:00;101230.0;;;24.6;100.0
31532;BME280;23787;52.180;5.288;2022-08-19T17:13:59;101230.0;;;24.5;100.0
31532;BME280;23787;52.180;5.288;2022-08-19T17:18:59;101230.0;;;24.4;100.0
31532;BME280;23787;52.180;5.288;2022-08-19T17:23:59;101230.0;;;24.5;100.0
31532;BME280;23787;52.180;5.288;2022-08-19T17:33:59;101240.0;;;24.0;100.0
31532;BME280;23787;52.180;5.288;2022-08-19T17:38:59;101240.0;;;24.3;100.0
31532;BME280;23787;52.180;5.288;2022-08-19T17:43:58;101250.0;;;23.5;100.0
31532;BME280;23787;52.180;5.288;2022-08-19T17:48:58;101250.0;;;23.7;100.0
31532;BME280;23787;52.180;5.288;2022-08-19T17:53:59;101260.0;;;23.8;100.0
31532;BME280;23787;52.180;5.288;2022-08-19T17:58:58;101260.0;;;23.4;100.0
31532;BME280;23787;52.180;5.288;2022-08-19T18:03:58;101270.0;;;23.2;100.0
31532;BME280;23787;52.180;5.288;2022-08-19T18:08:58;101270.0;;;23.0;100.0
31532;BME280;23787;52.180;5.288;2022-08-19T18:13:58;101280.0;;;22.9;100.0
31532;BME280;23787;52.180;5.288;2022-08-19T18:18:58;101280.0;;;22.8;100.0
31532;BME280;23787;52.180;5.288;2022-08-19T18:28:58;101290.0;;;22.6;100.0
31532;BME280;23787;52.180;5.288;2022-08-19T18:33:58;101290.0;;;22.8;100.0
31532;BME280;23787;52.180;5.288;2022-08-19T18:43:58;101290.0;;;22.9;100.0
31532;BME280;23787;52.180;5.288;2022-08-19T18:48:58;101300.0;;;22.7;100.0
31532;BME280;23787;52.180;5.288;2022-08-19T18:53:59;101300.0;;;23.0;100.0
31532;BME280;23787;52.180;5.288;2022-08-19T18:58:59;101320.0;;;22.7;100.0
31532;BME280;23787;52.180;5.288;2022-08-19T19:04:00;101320.0;;;22.6;100.0
31532;BME280;23787;52.180;5.288;2022-08-19T19:08:58;101320.0;;;22.5;100.0
31532;BME280;23787;52.180;5.288;2022-08-19T19:13:59;101330.0;;;22.6;100.0
31532;BME280;23787;52.180;5.288;2022-08-19T19:18:58;101350.0;;;22.3;100.0
31532;BME280;23787;52.180;5.288;2022-08-19T19:23:59;101360.0;;;21.8;100.0
31532;BME280;23787;52.180;5.288;2022-08-19T19:28:58;101360.0;;;21.7;100.0
31532;BME280;23787;52.180;5.288;2022-08-19T19:38:59;101370.0;;;21.6;100.0
31532;BME280;23787;52.180;5.288;2022-08-19T19:43:58;101370.0;;;21.7;100.0
31532;BME280;23787;52.180;5.288;2022-08-19T19:48:59;101370.0;;;21.3;100.0
31532;BME280;23787;52.180;5.288;2022-08-19T19:53:59;101360.0;;;21.6;100.0
31532;BME280;23787;52.180;5.288;2022-08-19T19:58:59;101360.0;;;21.7;100.0
31532;BME280;23787;52.180;5.288;2022-08-19T20:03:58;101360.0;;;21.4;100.0
31532;BME280;23787;52.180;5.288;2022-08-19T20:13:59;101360.0;;;21.5;100.0
31532;BME280;23787;52.180;5.288;2022-08-19T20:18:59;101360.0;;;21.4;100.0
31532;BME280;23787;52.180;5.288;2022-08-19T20:38:59;101380.0;;;21.1;100.0
31532;BME280;23787;52.180;5.288;2022-08-19T20:48:59;101380.0;;;21.0;100.0
31532;BME280;23787;52.180;5.288;2022-08-19T20:53:58;101370.0;;;21.3;100.0
31532;BME280;23787;52.180;5.288;2022-08-19T21:03:58;101370.0;;;21.2;100.0
31532;BME280;23787;52.180;5.288;2022-08-19T21:08:58;101370.0;;;21.3;100.0
31532;BME280;23787;52.180;5.288;2022-08-19T21:13:59;101380.0;;;21.1;100.0
31532;BME280;23787;52.180;5.288;2022-08-19T21:28:59;101370.0;;;21.2;100.0
31532;BME280;23787;52.180;5.288;2022-08-19T21:33:58;101370.0;;;21.1;100.0
31532;BME280;23787;52.180;5.288;2022-08-19T21:38:58;101370.0;;;21.2;100.0
31532;BME280;23787;52.180;5.288;2022-08-19T21:43:59;101370.0;;;21.1;100.0
31532;BME280;23787;52.180;5.288;2022-08-19T21:48:59;101360.0;;;21.3;100.0
31532;BME280;23787;52.180;5.288;2022-08-19T21:58:59;101360.0;;;21.2;100.0
31532;BME280;23787;52.180;5.288;2022-08-19T22:03:59;101370.0;;;21.1;100.0
31532;BME280;23787;52.180;5.288;2022-08-19T22:18:58;101370.0;;;21.0;100.0
31532;BME280;23787;52.180;5.288;2022-08-19T22:33:59;101380.0;;;21.1;100.0
31532;BME280;23787;52.180;5.288;2022-08-19T22:38:58;101380.0;;;21.2;100.0
31532;BME280;23787;52.180;5.288;2022-08-19T22:43:58;101380.0;;;21.0;100.0
31532;BME280;23787;52.180;5.288;2022-08-19T22:48:59;101370.0;;;21.1;100.0
31532;BME280;23787;52.180;5.288;2022-08-19T22:53:59;101380.0;;;20.9;100.0
31532;BME280;23787;52.180;5.288;2022-08-19T22:58:59;101380.0;;;21.0;100.0
31532;BME280;23787;52.180;5.288;2022-08-19T23:03:59;101380.0;;;21.1;100.0
31532;BME280;23787;52.180;5.288;2022-08-19T23:08:59;101380.0;;;21.2;100.0
31532;BME280;23787;52.180;5.288;2022-08-19T23:13:59;101380.0;;;21.1;100.0
31532;BME280;23787;52.180;5.288;2022-08-19T23:23:59;101390.0;;;21.0;100.0
31532;BME280;23787;52.180;5.288;2022-08-19T23:28:59;101380.0;;;20.9;100.0
31532;BME280;23787;52.180;5.288;2022-08-19T23:48:59;101390.0;;;21.1;100.0
31532;BME280;23787;52.180;5.288;2022-08-19T23:53:59;101380.0;;;21.0;100.0
